createdAt,value
2023-05-25T00:00:14.007Z,28.55
2023-05-25T00:01:13.979Z,29.08
2023-05-25T00:02:13.976Z,25.79
2023-05-25T00:03:14.005Z,36.62
2023-05-25T00:04:14.105Z,35.01
2023-05-25T00:05:14.013Z,29.31
2023-05-25T00:06:14.012Z,31.48
2023-05-25T00:07:14.010Z,29.47
2023-05-25T00:08:14.057Z,29.60
2023-05-25T00:09:14.022Z,31.78
2023-05-25T00:10:14.034Z,30.17
2023-05-25T00:11:14.039Z,30.16
2023-05-25T00:12:14.034Z,31.17
2023-05-25T00:13:14.092Z,25.73
2023-05-25T00:14:14.052Z,25.24
2023-05-25T00:15:14.052Z,25.00
2023-05-25T00:16:14.064Z,31.75
2023-05-25T00:17:14.112Z,29.54
2023-05-25T00:18:14.091Z,29.88
2023-05-25T00:19:14.101Z,32.28
2023-05-25T00:20:14.131Z,31.42
2023-05-25T00:21:14.095Z,30.12
2023-05-25T00:22:14.112Z,30.00
2023-05-25T00:23:14.139Z,28.49
2023-05-25T00:24:14.122Z,30.42
2023-05-25T00:25:14.127Z,32.17
2023-05-25T00:26:14.137Z,31.82
2023-05-25T00:27:14.168Z,31.35
2023-05-25T00:28:14.177Z,29.49
2023-05-25T00:29:14.164Z,30.59
2023-05-25T00:30:14.173Z,33.06
2023-05-25T00:31:14.280Z,25.76
2023-05-25T00:32:14.194Z,27.84
2023-05-25T00:33:14.216Z,29.99
2023-05-25T00:34:14.216Z,30.66
2023-05-25T00:35:14.213Z,29.39
2023-05-25T00:36:14.219Z,28.67
2023-05-25T00:37:14.228Z,32.05
2023-05-25T00:38:14.266Z,35.26
2023-05-25T00:39:14.237Z,34.08
2023-05-25T00:40:14.259Z,33.23
2023-05-25T00:41:14.266Z,29.33
2023-05-25T00:42:14.291Z,33.61
2023-05-25T00:43:14.272Z,29.69
2023-05-25T00:44:14.276Z,37.39
2023-05-25T00:45:14.309Z,35.16
2023-05-25T00:46:14.309Z,30.33
2023-05-25T00:47:14.301Z,31.72
2023-05-25T00:48:14.309Z,30.21
2023-05-25T00:49:14.315Z,32.83
2023-05-25T00:50:14.339Z,28.80
2023-05-25T00:51:14.349Z,32.66
2023-05-25T00:52:14.338Z,29.68
2023-05-25T00:53:14.357Z,29.67
2023-05-25T00:54:14.374Z,31.59
2023-05-25T00:55:14.400Z,26.96
2023-05-25T00:56:14.399Z,29.37
2023-05-25T00:57:14.403Z,28.31
2023-05-25T00:58:14.435Z,27.42
2023-05-25T00:59:14.434Z,34.38
2023-05-25T01:00:14.434Z,30.72
2023-05-25T01:01:14.435Z,40.72
2023-05-25T01:02:14.516Z,31.02
2023-05-25T01:03:14.527Z,35.00
2023-05-25T01:04:14.459Z,38.54
2023-05-25T01:05:14.465Z,28.70
2023-05-25T01:06:14.480Z,33.95
2023-05-25T01:07:14.502Z,27.21
2023-05-25T01:08:14.508Z,38.37
2023-05-25T01:09:14.516Z,34.86
2023-05-25T01:10:14.529Z,37.72
2023-05-25T01:11:14.551Z,30.49
2023-05-25T01:12:14.554Z,25.00
2023-05-25T01:13:14.562Z,30.38
2023-05-25T01:14:14.576Z,37.53
2023-05-25T01:15:14.597Z,30.84
2023-05-25T01:16:14.639Z,29.38
2023-05-25T01:17:14.627Z,25.30
2023-05-25T01:18:14.625Z,27.88
2023-05-25T01:19:14.641Z,25.53
2023-05-25T01:20:14.685Z,28.59
2023-05-25T01:21:14.667Z,29.03
2023-05-25T01:22:14.683Z,31.03
2023-05-25T01:23:14.701Z,33.30
2023-05-25T01:24:14.705Z,36.92
2023-05-25T01:25:14.713Z,30.11
2023-05-25T01:26:14.714Z,31.09
2023-05-25T01:27:14.716Z,29.89
2023-05-25T01:28:14.730Z,31.36
2023-05-25T01:29:14.750Z,31.80
2023-05-25T01:30:14.739Z,30.41
2023-05-25T01:31:14.752Z,29.72
2023-05-25T01:32:14.860Z,29.30
2023-05-25T01:33:14.834Z,30.63
2023-05-25T01:34:14.795Z,30.38
2023-05-25T01:35:14.840Z,34.69
2023-05-25T01:36:14.831Z,32.76
2023-05-25T01:37:14.829Z,27.85
2023-05-25T01:38:14.837Z,29.76
2023-05-25T01:39:14.837Z,26.52
2023-05-25T01:40:14.849Z,30.15
2023-05-25T01:41:14.866Z,29.77
2023-05-25T01:42:14.871Z,29.17
2023-05-25T01:43:14.899Z,28.48
2023-05-25T01:44:14.869Z,34.50
2023-05-25T01:45:14.922Z,30.70
2023-05-25T01:46:14.980Z,30.77
2023-05-25T01:47:14.910Z,28.75
2023-05-25T01:48:14.945Z,32.22
2023-05-25T01:49:14.948Z,30.28
2023-05-25T01:50:14.933Z,32.36
2023-05-25T01:51:14.963Z,29.86
2023-05-25T01:52:14.988Z,30.50
2023-05-25T01:53:14.989Z,33.34
2023-05-25T01:54:15.037Z,31.66
2023-05-25T01:55:14.988Z,30.89
2023-05-25T01:56:15.024Z,32.50
2023-05-25T01:57:15.025Z,31.24
2023-05-25T01:58:15.053Z,28.60
2023-05-25T01:59:15.031Z,28.87
2023-05-25T02:00:15.075Z,27.99
2023-05-25T02:01:15.101Z,25.00
2023-05-25T02:02:15.069Z,32.18
2023-05-25T02:03:15.072Z,27.24
2023-05-25T02:04:15.123Z,32.74
2023-05-25T02:05:15.104Z,29.75
2023-05-25T02:06:15.109Z,27.18
2023-05-25T02:07:15.136Z,36.77
2023-05-25T02:08:15.159Z,42.82
2023-05-25T02:09:15.151Z,38.92
2023-05-25T02:10:15.171Z,37.22
2023-05-25T02:11:15.188Z,32.29
2023-05-25T02:12:15.325Z,34.35
2023-05-25T02:13:15.259Z,29.65
2023-05-25T02:14:15.224Z,27.68
2023-05-25T02:15:15.243Z,30.45
2023-05-25T02:16:15.359Z,28.72
2023-05-25T02:17:15.264Z,29.71
2023-05-25T02:18:15.288Z,28.03
2023-05-25T02:19:15.298Z,28.34
2023-05-25T02:20:15.365Z,26.80
2023-05-25T02:21:15.311Z,29.75
2023-05-25T02:22:15.324Z,29.90
2023-05-25T02:23:15.379Z,28.55
2023-05-25T02:24:15.356Z,28.03
2023-05-25T02:25:15.365Z,29.30
2023-05-25T02:26:15.386Z,26.82
2023-05-25T02:27:15.390Z,28.18
2023-05-25T02:28:15.419Z,27.68
2023-05-25T02:29:15.420Z,34.68
2023-05-25T02:30:15.426Z,36.14
2023-05-25T02:31:15.498Z,37.09
2023-05-25T02:32:15.464Z,34.84
2023-05-25T02:33:15.511Z,34.00
2023-05-25T02:34:15.496Z,31.96
2023-05-25T02:35:15.498Z,31.56
2023-05-25T02:36:15.524Z,30.67
2023-05-25T02:37:15.540Z,28.86
2023-05-25T02:38:15.589Z,29.84
2023-05-25T02:39:15.552Z,27.65
2023-05-25T02:40:15.560Z,25.54
2023-05-25T02:41:15.574Z,27.84
2023-05-25T02:42:15.593Z,32.00
2023-05-25T02:43:15.622Z,30.36
2023-05-25T02:44:15.631Z,27.22
2023-05-25T02:45:15.637Z,27.95
2023-05-25T02:46:15.669Z,29.92
2023-05-25T02:47:15.652Z,30.40
2023-05-25T02:48:15.724Z,30.12
2023-05-25T02:49:15.732Z,30.68
2023-05-25T02:50:15.742Z,30.11
2023-05-25T02:51:15.758Z,30.27
2023-05-25T02:52:15.757Z,36.58
2023-05-25T02:53:15.790Z,33.53
2023-05-25T02:54:15.789Z,31.78
2023-05-25T02:55:15.783Z,30.81
2023-05-25T02:56:15.806Z,25.74
2023-05-25T02:57:15.820Z,26.95
2023-05-25T02:58:15.883Z,28.13
2023-05-25T02:59:15.857Z,26.25
2023-05-25T03:00:15.886Z,31.06
2023-05-25T03:01:15.912Z,24.71
2023-05-25T03:02:15.910Z,25.00
2023-05-25T03:03:15.963Z,31.11
2023-05-25T03:04:15.960Z,33.02
2023-05-25T03:05:15.966Z,25.53
2023-05-25T03:06:15.995Z,27.79
2023-05-25T03:07:15.999Z,28.54
2023-05-25T03:08:16.007Z,38.75
2023-05-25T03:09:16.046Z,34.91
2023-05-25T03:10:16.044Z,32.41
2023-05-25T03:11:16.064Z,29.58
2023-05-25T03:12:16.080Z,28.83
2023-05-25T03:13:16.111Z,33.41
2023-05-25T03:14:16.120Z,25.89
2023-05-25T03:15:16.143Z,33.21
2023-05-25T03:16:16.160Z,40.75
2023-05-25T03:17:16.161Z,34.50
2023-05-25T03:18:16.221Z,36.43
2023-05-25T03:19:16.195Z,36.16
2023-05-25T03:20:16.297Z,35.01
2023-05-25T03:21:16.230Z,32.50
2023-05-25T03:22:16.269Z,27.71
2023-05-25T03:23:16.307Z,30.35
2023-05-25T03:24:16.290Z,28.53
2023-05-25T03:25:16.323Z,31.02
2023-05-25T03:26:16.335Z,29.84
2023-05-25T03:27:16.343Z,29.64
2023-05-25T03:28:16.368Z,28.58
2023-05-25T03:29:16.402Z,30.68
2023-05-25T03:30:16.399Z,34.81
2023-05-25T03:31:16.407Z,30.62
2023-05-25T03:32:16.503Z,30.66
2023-05-25T03:33:16.497Z,33.11
2023-05-25T03:34:16.459Z,27.75
2023-05-25T03:35:16.492Z,37.87
2023-05-25T03:36:16.493Z,34.99
2023-05-25T03:37:16.515Z,36.11
2023-05-25T03:38:16.554Z,28.06
2023-05-25T03:39:16.563Z,33.75
2023-05-25T03:40:16.569Z,26.77
2023-05-25T03:41:16.593Z,27.91
2023-05-25T03:42:16.606Z,31.29
2023-05-25T03:43:16.633Z,30.07
2023-05-25T03:44:16.661Z,27.53
2023-05-25T03:45:16.684Z,29.06
2023-05-25T03:46:16.752Z,28.27
2023-05-25T03:47:16.704Z,27.33
2023-05-25T03:48:16.709Z,32.53
2023-05-25T03:49:16.749Z,28.16
2023-05-25T03:50:16.744Z,30.89
2023-05-25T03:51:16.766Z,35.75
2023-05-25T03:52:16.787Z,31.54
2023-05-25T03:53:16.807Z,29.62
2023-05-25T03:54:16.852Z,29.67
2023-05-25T03:55:16.848Z,31.37
2023-05-25T03:56:16.860Z,27.51
2023-05-25T03:57:16.882Z,26.26
2023-05-25T03:58:16.893Z,31.20
2023-05-25T03:59:16.935Z,31.43
2023-05-25T04:00:17.091Z,31.88
2023-05-25T04:01:16.970Z,29.77
2023-05-25T04:02:17.054Z,30.88
2023-05-25T04:03:17.106Z,37.95
2023-05-25T04:04:17.062Z,31.57
2023-05-25T04:05:17.055Z,30.75
2023-05-25T04:06:17.067Z,29.57
2023-05-25T04:07:17.080Z,33.54
2023-05-25T04:08:17.089Z,31.60
2023-05-25T04:09:17.115Z,33.17
2023-05-25T04:10:17.143Z,30.41
2023-05-25T04:11:17.148Z,32.08
2023-05-25T04:12:17.169Z,38.85
2023-05-25T04:13:17.193Z,32.92
2023-05-25T04:14:17.216Z,29.02
2023-05-25T04:15:17.244Z,27.23
2023-05-25T04:16:17.299Z,36.29
2023-05-25T04:17:17.285Z,29.85
2023-05-25T04:18:17.300Z,28.20
2023-05-25T04:19:17.680Z,33.54
2023-05-25T04:20:17.363Z,28.48
2023-05-25T04:21:17.368Z,31.07
2023-05-25T04:22:17.384Z,32.23
2023-05-25T04:23:17.465Z,30.88
2023-05-25T04:24:17.452Z,27.41
2023-05-25T04:25:17.510Z,28.08
2023-05-25T04:26:17.505Z,30.86
2023-05-25T04:27:17.520Z,34.45
2023-05-25T04:28:17.551Z,31.80
2023-05-25T04:29:17.571Z,32.26
2023-05-25T04:30:17.590Z,31.75
2023-05-25T04:31:17.652Z,35.46
2023-05-25T04:32:17.624Z,32.37
2023-05-25T04:33:17.643Z,33.19
2023-05-25T04:34:17.666Z,31.11
2023-05-25T04:35:17.686Z,28.02
2023-05-25T04:36:17.704Z,30.47
2023-05-25T04:37:17.727Z,28.51
2023-05-25T04:38:17.801Z,25.69
2023-05-25T04:39:17.780Z,25.13
2023-05-25T04:40:17.799Z,30.40
2023-05-25T04:41:17.822Z,29.41
2023-05-25T04:42:17.828Z,27.92
2023-05-25T04:43:17.857Z,31.58
2023-05-25T04:44:17.915Z,31.59
2023-05-25T04:45:17.919Z,35.13
2023-05-25T04:46:17.979Z,32.77
2023-05-25T04:47:17.932Z,30.92
2023-05-25T04:48:17.957Z,28.00
2023-05-25T04:49:17.992Z,30.19
2023-05-25T04:50:18.002Z,30.88
2023-05-25T04:51:18.032Z,28.70
2023-05-25T04:52:18.038Z,32.16
2023-05-25T04:53:18.080Z,28.57
2023-05-25T04:54:18.090Z,30.19
2023-05-25T04:55:18.103Z,28.71
2023-05-25T04:56:18.136Z,29.06
2023-05-25T04:57:18.154Z,31.37
2023-05-25T04:58:18.186Z,26.56
2023-05-25T04:59:18.205Z,25.00
2023-05-25T05:00:18.228Z,28.98
2023-05-25T05:01:18.305Z,26.82
2023-05-25T05:02:18.305Z,28.34
2023-05-25T05:03:18.445Z,30.21
2023-05-25T05:04:18.325Z,25.50
2023-05-25T05:05:18.339Z,29.13
2023-05-25T05:06:18.377Z,28.59
2023-05-25T05:07:18.367Z,30.46
2023-05-25T05:08:18.398Z,31.39
2023-05-25T05:09:18.405Z,26.21
2023-05-25T05:10:18.436Z,29.15
2023-05-25T05:11:18.447Z,29.59
2023-05-25T05:12:18.474Z,25.20
2023-05-25T05:13:18.501Z,26.27
2023-05-25T05:14:18.522Z,26.55
2023-05-25T05:15:18.550Z,29.57
2023-05-25T05:16:18.700Z,29.59
2023-05-25T05:17:18.595Z,29.97
2023-05-25T05:18:18.628Z,33.96
2023-05-25T05:19:18.656Z,33.13
2023-05-25T05:20:18.734Z,33.43
2023-05-25T05:21:19.344Z,29.38
2023-05-25T05:22:18.724Z,35.37
2023-05-25T05:23:18.740Z,31.95
2023-05-25T05:24:18.777Z,29.69
2023-05-25T05:25:18.814Z,33.00
2023-05-25T05:26:18.834Z,29.90
2023-05-25T05:27:18.833Z,29.16
2023-05-25T05:28:18.853Z,25.69
2023-05-25T05:29:18.878Z,26.96
2023-05-25T05:30:18.899Z,28.15
2023-05-25T05:31:18.992Z,31.24
2023-05-25T05:32:18.919Z,33.74
2023-05-25T05:33:19.095Z,37.96
2023-05-25T05:34:18.970Z,29.11
2023-05-25T05:35:18.999Z,25.15
2023-05-25T05:36:19.001Z,29.34
2023-05-25T05:37:19.008Z,33.11
2023-05-25T05:38:19.063Z,28.03
2023-05-25T05:39:19.077Z,26.21
2023-05-25T05:40:19.090Z,25.18
2023-05-25T05:41:19.073Z,27.27
2023-05-25T05:42:19.118Z,25.00
2023-05-25T05:43:19.142Z,33.33
2023-05-25T05:44:19.216Z,33.42
2023-05-25T05:45:19.151Z,28.33
2023-05-25T05:46:19.197Z,44.42
2023-05-25T05:47:19.203Z,50.48
2023-05-25T05:48:19.229Z,42.29
2023-05-25T05:49:19.209Z,43.30
2023-05-25T05:50:19.181Z,48.96
2023-05-25T05:51:19.273Z,47.98
2023-05-25T05:52:19.212Z,47.81
2023-05-25T05:53:19.234Z,55.85
2023-05-25T05:54:19.216Z,58.59
2023-05-25T05:55:19.219Z,55.65
2023-05-25T05:56:19.239Z,64.62
2023-05-25T05:57:19.255Z,62.42
2023-05-25T05:58:19.269Z,49.75
2023-05-25T05:59:19.283Z,53.95
2023-05-25T06:00:19.357Z,46.23
2023-05-25T06:01:19.304Z,35.27
2023-05-25T06:02:19.543Z,38.52
2023-05-25T06:03:19.365Z,27.49
2023-05-25T06:04:19.310Z,38.34
2023-05-25T06:05:19.359Z,36.35
2023-05-25T06:06:19.326Z,46.12
2023-05-25T06:07:19.328Z,43.47
2023-05-25T06:08:19.287Z,41.22
2023-05-25T06:09:19.300Z,34.37
2023-05-25T06:10:19.297Z,27.79
2023-05-25T06:11:19.306Z,27.67
2023-05-25T06:12:19.337Z,32.44
2023-05-25T06:13:19.358Z,27.70
2023-05-25T06:14:19.319Z,49.00
2023-05-25T06:15:19.370Z,60.17
2023-05-25T06:16:19.417Z,69.64
2023-05-25T06:17:19.384Z,75.51
2023-05-25T06:18:19.497Z,64.46
2023-05-25T06:19:19.383Z,67.96
2023-05-25T06:20:19.475Z,77.53
2023-05-25T06:21:19.471Z,77.58
2023-05-25T06:22:19.389Z,76.38
2023-05-25T06:23:19.374Z,72.86
2023-05-25T06:24:19.444Z,63.27
2023-05-25T06:25:19.376Z,67.29
2023-05-25T06:26:19.462Z,75.12
2023-05-25T06:27:19.410Z,56.06
2023-05-25T06:28:19.404Z,55.23
2023-05-25T06:29:19.392Z,57.25
2023-05-25T06:30:19.388Z,56.40
2023-05-25T06:31:19.421Z,61.15
2023-05-25T06:32:19.416Z,65.62
2023-05-25T06:33:19.385Z,68.37
2023-05-25T06:34:19.376Z,70.05
2023-05-25T06:35:19.402Z,73.40
2023-05-25T06:36:19.404Z,70.92
2023-05-25T06:37:19.441Z,52.67
2023-05-25T06:38:19.817Z,40.01
2023-05-25T06:39:19.854Z,61.84
2023-05-25T06:40:19.418Z,38.66
2023-05-25T06:41:19.437Z,29.43
2023-05-25T06:42:19.463Z,29.74
2023-05-25T06:43:19.585Z,27.93
2023-05-25T06:44:19.560Z,24.15
2023-05-25T06:45:19.626Z,24.65
2023-05-25T06:46:19.707Z,25.46
2023-05-25T06:47:19.690Z,25.00
2023-05-25T06:48:19.701Z,27.22
2023-05-25T06:49:19.746Z,34.72
2023-05-25T06:50:19.789Z,31.27
2023-05-25T06:51:19.821Z,24.74
2023-05-25T06:52:19.923Z,34.82
2023-05-25T06:53:19.925Z,29.64
2023-05-25T06:54:19.890Z,25.00
2023-05-25T06:55:19.896Z,33.56
2023-05-25T06:56:19.932Z,32.37
2023-05-25T06:57:19.953Z,36.71
2023-05-25T06:58:20.007Z,30.40
2023-05-25T06:59:20.021Z,28.70
2023-05-25T07:00:20.062Z,34.38
2023-05-25T07:01:20.113Z,22.93
2023-05-25T07:02:20.063Z,25.00
2023-05-25T07:03:20.079Z,25.63
2023-05-25T07:04:20.111Z,29.03
2023-05-25T07:05:20.182Z,31.97
2023-05-25T07:06:20.127Z,25.00
2023-05-25T07:07:20.203Z,27.59
2023-05-25T07:08:20.170Z,25.06
2023-05-25T07:09:20.256Z,31.84
2023-05-25T07:10:20.238Z,25.32
2023-05-25T07:11:20.267Z,35.01
2023-05-25T07:12:20.308Z,36.77
2023-05-25T07:13:20.372Z,46.01
2023-05-25T07:14:20.435Z,60.44
2023-05-25T07:15:20.500Z,51.85
2023-05-25T07:16:20.904Z,60.72
2023-05-25T07:17:20.654Z,63.41
2023-05-25T07:18:20.660Z,68.29
2023-05-25T07:19:20.777Z,71.51
2023-05-25T07:20:20.796Z,79.44
2023-05-25T07:21:20.849Z,77.31
2023-05-25T07:22:20.923Z,72.06
2023-05-25T07:23:21.008Z,82.94
2023-05-25T07:24:21.030Z,70.91
2023-05-25T07:25:21.094Z,56.80
2023-05-25T07:26:21.155Z,59.82
2023-05-25T07:27:21.221Z,54.22
2023-05-25T07:28:21.281Z,60.37
2023-05-25T07:29:21.331Z,63.77
2023-05-25T07:30:21.464Z,61.98
2023-05-25T07:31:21.556Z,58.74
2023-05-25T07:32:21.509Z,65.95
2023-05-25T07:33:21.622Z,76.64
2023-05-25T07:34:21.775Z,79.22
2023-05-25T07:35:21.721Z,71.57
2023-05-25T07:36:21.789Z,34.93
2023-05-25T07:37:21.842Z,70.57
2023-05-25T07:38:22.107Z,93.59
2023-05-25T07:39:22.013Z,103.78
2023-05-25T07:40:22.072Z,110.62
2023-05-25T07:41:22.155Z,120.04
2023-05-25T07:42:22.198Z,123.35
2023-05-25T07:43:22.215Z,136.34
2023-05-25T07:44:22.388Z,141.27
2023-05-25T07:45:22.253Z,137.75
2023-05-25T07:46:22.488Z,141.16
2023-05-25T07:47:22.440Z,148.43
2023-05-25T07:48:22.415Z,159.64
2023-05-25T07:49:22.459Z,164.29
2023-05-25T07:50:22.582Z,167.98
2023-05-25T07:51:22.577Z,169.54
2023-05-25T07:52:22.629Z,174.19
2023-05-25T07:53:22.680Z,179.50
2023-05-25T07:54:22.680Z,177.95
2023-05-25T07:55:22.704Z,180.48
2023-05-25T07:56:22.786Z,194.46
2023-05-25T07:57:22.795Z,198.54
2023-05-25T07:58:22.868Z,208.55
2023-05-25T07:59:22.848Z,213.11
2023-05-25T08:00:22.988Z,213.50
2023-05-25T08:01:23.935Z,217.46
2023-05-25T08:02:23.174Z,225.06
2023-05-25T08:03:31.646Z,223.08
2023-05-25T08:04:24.090Z,223.65
2023-05-25T08:05:22.978Z,225.16
2023-05-25T08:06:22.957Z,227.96
2023-05-25T08:07:22.950Z,230.77
2023-05-25T08:08:22.931Z,242.96
2023-05-25T08:09:22.999Z,245.13
2023-05-25T08:10:22.922Z,248.29
2023-05-25T08:11:22.943Z,243.64
2023-05-25T08:12:38.455Z,248.62
2023-05-25T08:13:23.907Z,248.80
2023-05-25T08:14:22.920Z,247.89
2023-05-25T08:15:22.884Z,248.48
2023-05-25T08:16:22.920Z,249.86
2023-05-25T08:17:23.026Z,253.45
2023-05-25T08:18:22.879Z,248.20
2023-05-25T08:19:22.854Z,245.49
2023-05-25T08:20:23.004Z,250.00
2023-05-25T08:21:22.866Z,245.34
2023-05-25T08:22:22.857Z,248.76
2023-05-25T08:23:22.838Z,248.68
2023-05-25T08:24:22.887Z,239.84
2023-05-25T08:25:22.820Z,244.87
2023-05-25T08:27:23.847Z,237.12
2023-05-25T08:28:23.285Z,226.88
2023-05-25T08:29:23.272Z,228.70
2023-05-25T08:30:22.838Z,231.79
2023-05-25T08:31:22.823Z,235.98
2023-05-25T08:32:22.892Z,233.18
2023-05-25T08:33:25.155Z,234.38
2023-05-25T08:34:22.777Z,235.70
2023-05-25T08:35:22.800Z,233.32
2023-05-25T08:36:22.770Z,227.53
2023-05-25T08:37:22.757Z,223.78
2023-05-25T08:38:22.772Z,218.12
2023-05-25T08:39:22.806Z,212.47
2023-05-25T08:40:22.767Z,211.49
2023-05-25T08:41:22.756Z,209.78
2023-05-25T08:42:22.752Z,207.79
2023-05-25T08:43:22.757Z,197.21
2023-05-25T08:44:22.836Z,174.25
2023-05-25T08:45:34.379Z,183.17
2023-05-25T08:46:23.791Z,181.69
2023-05-25T08:47:22.722Z,169.89
2023-05-25T08:49:22.854Z,165.10
2023-05-25T08:50:22.721Z,169.48
2023-05-25T08:51:22.709Z,171.68
2023-05-25T08:52:22.688Z,174.25
2023-05-25T08:53:22.695Z,178.04
2023-05-25T08:54:22.828Z,181.43
2023-05-25T08:55:22.673Z,183.24
2023-05-25T08:56:22.641Z,187.46
2023-05-25T08:57:22.675Z,188.58
2023-05-25T08:58:22.655Z,189.60
2023-05-25T08:59:22.642Z,187.68
2023-05-25T09:00:22.686Z,192.58
2023-05-25T09:01:22.712Z,189.82
2023-05-25T09:02:22.692Z,188.67
2023-05-25T09:03:22.662Z,189.98
2023-05-25T09:04:22.570Z,189.54
2023-05-25T09:05:22.562Z,194.68
2023-05-25T09:06:22.574Z,193.11
2023-05-25T09:07:22.565Z,189.05
2023-05-25T09:08:22.559Z,189.91
2023-05-25T09:09:22.577Z,185.34
2023-05-25T09:10:22.553Z,177.93
2023-05-25T09:11:31.934Z,177.70
2023-05-25T09:12:23.561Z,177.82
2023-05-25T09:13:23.192Z,178.01
2023-05-25T09:14:22.498Z,175.13
2023-05-25T09:15:22.506Z,174.75
2023-05-25T09:16:22.539Z,167.82
2023-05-25T09:17:22.492Z,158.33
2023-05-25T09:18:22.505Z,158.30
2023-05-25T09:19:22.514Z,156.62
2023-05-25T09:20:22.574Z,158.81
2023-05-25T09:21:22.825Z,161.14
2023-05-25T09:22:22.497Z,145.00
2023-05-25T09:23:22.432Z,139.40
2023-05-25T09:24:22.451Z,165.73
2023-05-25T09:25:22.475Z,180.36
2023-05-25T09:26:22.435Z,146.37
2023-05-25T09:27:22.429Z,162.03
2023-05-25T09:28:26.476Z,138.83
2023-05-25T09:29:22.404Z,138.94
2023-05-25T09:30:22.432Z,139.03
2023-05-25T09:31:22.426Z,142.16
2023-05-25T09:32:22.560Z,160.17
2023-05-25T09:33:22.390Z,171.19
2023-05-25T09:34:23.418Z,168.77
2023-05-25T09:35:22.402Z,157.78
2023-05-25T09:36:22.453Z,143.27
2023-05-25T09:37:22.458Z,116.08
2023-05-25T09:38:22.801Z,109.11
2023-05-25T09:39:23.067Z,94.83
2023-05-25T09:40:22.359Z,94.78
2023-05-25T09:41:22.472Z,102.48
2023-05-25T09:42:22.363Z,141.82
2023-05-25T09:43:36.424Z,160.00
2023-05-25T09:44:23.905Z,160.69
2023-05-25T09:45:22.324Z,163.74
2023-05-25T09:46:22.358Z,171.58
2023-05-25T09:47:22.874Z,177.61
2023-05-25T09:48:22.347Z,184.44
2023-05-25T09:49:22.368Z,169.72
2023-05-25T09:50:22.310Z,175.01
2023-05-25T09:51:23.829Z,184.22
2023-05-25T09:52:22.331Z,199.50
2023-05-25T09:53:22.303Z,203.52
2023-05-25T09:54:22.371Z,111.18
2023-05-25T09:55:22.255Z,65.14
2023-05-25T09:56:22.261Z,21.77
2023-05-25T09:57:22.274Z,0.00
2023-05-25T09:58:22.245Z,0.00
2023-05-25T09:59:22.233Z,0.00
2023-05-25T10:00:22.241Z,0.00
2023-05-25T10:01:22.296Z,2.06
2023-05-25T10:02:22.296Z,8.40
2023-05-25T10:03:22.297Z,12.03
2023-05-25T10:04:22.349Z,21.53
2023-05-25T10:05:22.387Z,26.18
2023-05-25T10:06:23.375Z,27.10
2023-05-25T10:07:22.428Z,30.73
2023-05-25T10:08:22.409Z,31.46
2023-05-25T10:09:22.428Z,37.48
2023-05-25T10:10:22.416Z,28.01
2023-05-25T10:11:22.403Z,50.15
2023-05-25T10:12:22.420Z,70.37
2023-05-25T10:13:22.423Z,72.01
2023-05-25T10:14:22.466Z,79.95
2023-05-25T10:15:22.422Z,73.82
2023-05-25T10:16:22.572Z,51.84
2023-05-25T10:17:22.454Z,59.34
2023-05-25T10:18:22.400Z,69.32
2023-05-25T10:19:22.461Z,74.20
2023-05-25T10:20:22.455Z,93.52
2023-05-25T10:21:22.483Z,100.88
2023-05-25T10:22:22.480Z,113.96
2023-05-25T10:23:22.541Z,125.12
2023-05-25T10:24:22.625Z,121.60
2023-05-25T10:25:22.641Z,123.03
2023-05-25T10:26:22.751Z,130.63
2023-05-25T10:27:27.423Z,128.79
2023-05-25T10:28:22.851Z,124.65
2023-05-25T10:29:22.855Z,130.27
2023-05-25T10:30:22.766Z,136.25
2023-05-25T10:31:22.791Z,145.33
2023-05-25T10:32:22.804Z,130.53
2023-05-25T10:33:22.856Z,135.64
2023-05-25T10:34:22.850Z,148.61
2023-05-25T10:35:22.718Z,156.45
2023-05-25T10:36:22.711Z,158.79
2023-05-25T10:37:22.744Z,161.77
2023-05-25T10:38:22.802Z,166.40
2023-05-25T10:39:22.814Z,161.40
2023-05-25T10:40:22.881Z,157.80
2023-05-25T10:41:22.904Z,145.29
2023-05-25T10:42:22.921Z,140.82
2023-05-25T10:43:23.112Z,138.75
2023-05-25T10:44:23.405Z,127.52
2023-05-25T10:45:23.203Z,130.66
2023-05-25T10:46:23.183Z,124.98
2023-05-25T10:47:23.286Z,133.62
2023-05-25T10:48:23.609Z,115.69
2023-05-25T10:49:23.285Z,130.20
2023-05-25T10:50:23.417Z,120.53
2023-05-25T10:51:23.407Z,121.77
2023-05-25T10:52:23.464Z,119.31
2023-05-25T10:53:23.534Z,136.82
2023-05-25T10:54:23.861Z,147.25
2023-05-25T10:55:23.757Z,141.65
2023-05-25T10:56:23.707Z,109.47
2023-05-25T10:57:23.763Z,103.14
2023-05-25T10:58:23.849Z,113.70
2023-05-25T10:59:23.969Z,116.99
2023-05-25T11:00:24.005Z,118.81
2023-05-25T11:01:24.073Z,122.72
2023-05-25T11:02:24.180Z,127.12
2023-05-25T11:03:24.239Z,131.49
2023-05-25T11:04:24.174Z,140.43
2023-05-25T11:05:24.218Z,148.39
2023-05-25T11:06:24.247Z,151.63
2023-05-25T11:07:24.312Z,149.27
2023-05-25T11:08:24.365Z,160.97
2023-05-25T11:09:24.401Z,191.45
2023-05-25T11:10:24.421Z,184.42
2023-05-25T11:11:24.499Z,177.68
2023-05-25T11:12:24.621Z,173.23
2023-05-25T11:13:24.608Z,160.23
2023-05-25T11:14:24.637Z,163.47
2023-05-25T11:15:24.657Z,177.97
2023-05-25T11:16:25.417Z,200.01
2023-05-25T11:17:24.801Z,213.24
2023-05-25T11:18:24.817Z,218.16
2023-05-25T11:19:24.849Z,221.80
2023-05-25T11:20:24.886Z,227.64
2023-05-25T11:21:24.879Z,231.48
2023-05-25T11:22:24.924Z,232.25
2023-05-25T11:23:25.079Z,232.16
2023-05-25T11:24:25.358Z,233.55
2023-05-25T11:25:25.088Z,234.23
2023-05-25T11:26:25.119Z,238.13
2023-05-25T11:27:25.155Z,241.66
2023-05-25T11:28:25.190Z,244.26
2023-05-25T11:29:25.236Z,246.02
2023-05-25T11:30:25.278Z,249.54
2023-05-25T11:31:25.364Z,249.55
2023-05-25T11:32:25.375Z,249.32
2023-05-25T11:33:25.422Z,246.30
2023-05-25T11:34:25.476Z,249.75
2023-05-25T11:35:25.494Z,249.18
2023-05-25T11:36:25.544Z,248.76
2023-05-25T11:37:25.590Z,248.62
2023-05-25T11:38:25.639Z,248.99
2023-05-25T11:39:25.727Z,249.43
2023-05-25T11:40:25.721Z,249.14
2023-05-25T11:41:25.768Z,249.25
2023-05-25T11:42:25.848Z,248.36
2023-05-25T11:43:25.893Z,248.83
2023-05-25T11:44:26.358Z,249.96
2023-05-25T11:45:25.961Z,248.85
2023-05-25T11:46:26.028Z,249.61
2023-05-25T11:47:26.087Z,250.00
2023-05-25T11:48:26.087Z,248.49
2023-05-25T11:49:26.129Z,247.94
2023-05-25T11:50:26.177Z,248.28
2023-05-25T11:51:26.215Z,247.97
2023-05-25T11:52:26.312Z,249.59
2023-05-25T11:53:26.313Z,247.68
2023-05-25T11:54:26.385Z,249.06
2023-05-25T11:55:26.424Z,248.87
2023-05-25T11:56:35.193Z,246.03
2023-05-25T11:57:27.455Z,246.17
2023-05-25T11:58:26.438Z,246.26
2023-05-25T11:59:27.747Z,246.58
2023-05-25T12:00:26.431Z,246.38
2023-05-25T12:01:26.459Z,246.25
2023-05-25T12:02:26.486Z,247.47
2023-05-25T12:03:26.469Z,248.14
2023-05-25T12:04:26.531Z,246.75
2023-05-25T12:05:26.433Z,247.05
2023-05-25T12:06:26.406Z,249.83
2023-05-25T12:07:26.488Z,248.99
2023-05-25T12:08:26.374Z,248.98
2023-05-25T12:09:26.376Z,248.90
2023-05-25T12:10:26.363Z,248.95
2023-05-25T12:11:26.360Z,247.39
2023-05-25T12:12:26.351Z,248.88
2023-05-25T12:13:26.350Z,246.40
2023-05-25T12:14:26.347Z,241.00
2023-05-25T12:15:26.326Z,240.59
2023-05-25T12:16:26.357Z,246.07
2023-05-25T12:17:26.366Z,245.11
2023-05-25T12:18:26.310Z,244.87
2023-05-25T12:19:26.339Z,243.69
2023-05-25T12:20:26.347Z,234.37
2023-05-25T12:21:26.290Z,233.21
2023-05-25T12:22:26.289Z,232.60
2023-05-25T12:23:26.352Z,235.52
2023-05-25T12:24:26.385Z,241.78
2023-05-25T12:25:27.344Z,245.15
2023-05-25T12:26:26.263Z,245.28
2023-05-25T12:27:26.245Z,245.29
2023-05-25T12:28:26.249Z,245.29
2023-05-25T12:29:26.255Z,244.94
2023-05-25T12:30:26.226Z,236.31
2023-05-25T12:31:26.377Z,240.12
2023-05-25T12:32:26.243Z,241.57
2023-05-25T12:33:26.210Z,246.54
2023-05-25T12:34:26.205Z,244.91
2023-05-25T12:35:26.210Z,243.18
2023-05-25T12:36:26.209Z,244.11
2023-05-25T12:37:26.192Z,244.83
2023-05-25T12:38:26.189Z,244.66
2023-05-25T12:39:26.184Z,239.42
2023-05-25T12:40:26.177Z,236.57
2023-05-25T12:41:26.165Z,235.39
2023-05-25T12:42:26.157Z,224.47
2023-05-25T12:43:26.153Z,223.92
2023-05-25T12:44:26.150Z,222.20
2023-05-25T12:45:26.128Z,215.55